createdAt,value
2023-05-09T00:01:06.682Z,15.15
2023-05-09T00:03:08.324Z,14.35
2023-05-09T00:05:09.947Z,13.48
2023-05-09T00:07:12.809Z,13.85
2023-05-09T00:09:14.313Z,11.88
2023-05-09T00:11:15.808Z,12.95
2023-05-09T00:13:17.300Z,15.20
2023-05-09T00:15:18.857Z,12.98
2023-05-09T00:17:20.592Z,13.95
2023-05-09T00:19:22.127Z,12.35
2023-05-09T00:21:23.595Z,12.65
2023-05-09T00:23:26.491Z,12.35
2023-05-09T00:25:28.000Z,12.85
2023-05-09T00:27:29.831Z,11.32
2023-05-09T00:29:31.346Z,12.38
2023-05-09T00:31:32.871Z,11.75
2023-05-09T00:33:34.473Z,12.68
2023-05-09T00:35:35.981Z,13.07
2023-05-09T00:37:37.525Z,12.00
2023-05-09T00:39:40.401Z,11.88
2023-05-09T00:41:42.349Z,13.20
2023-05-09T00:43:43.835Z,13.45
2023-05-09T00:45:45.633Z,11.57
2023-05-09T00:47:47.205Z,13.00
2023-05-09T00:49:48.727Z,13.55
2023-05-09T00:51:50.523Z,11.63
2023-05-09T00:53:52.091Z,12.55
2023-05-09T00:55:56.617Z,12.35
2023-05-09T00:57:58.300Z,13.00
2023-05-09T01:00:00.299Z,12.35
2023-05-09T01:02:01.765Z,11.18
2023-05-09T01:04:03.631Z,10.02
2023-05-09T01:06:10.287Z,9.70
2023-05-09T01:08:21.592Z,10.10
2023-05-09T01:10:31.562Z,8.88
2023-05-09T01:12:43.816Z,9.68
2023-05-09T01:14:58.156Z,9.57
2023-05-09T01:17:06.385Z,9.63
2023-05-09T01:19:27.482Z,10.63
2023-05-09T01:21:31.088Z,11.95
2023-05-09T01:24:07.178Z,11.05
2023-05-09T01:26:18.807Z,10.10
2023-05-09T01:28:35.047Z,10.43
2023-05-09T01:30:38.081Z,12.02
2023-05-09T01:32:42.526Z,12.10
2023-05-09T01:34:45.012Z,11.88
2023-05-09T01:36:49.236Z,11.27
2023-05-09T01:38:52.367Z,11.02
2023-05-09T01:40:56.644Z,11.55
2023-05-09T01:43:01.811Z,11.65
2023-05-09T01:45:04.590Z,11.02
2023-05-09T01:47:08.972Z,12.95
2023-05-09T01:49:11.909Z,13.65
2023-05-09T01:51:15.465Z,12.73
2023-05-09T01:53:17.452Z,13.00
2023-05-09T01:55:21.263Z,11.57
2023-05-09T01:57:23.971Z,11.85
2023-05-09T01:59:27.194Z,10.43
2023-05-09T02:01:30.280Z,10.68
2023-05-09T02:03:34.876Z,10.98
2023-05-09T02:05:37.122Z,11.63
2023-05-09T02:07:40.360Z,12.65
2023-05-09T02:09:41.861Z,10.25
2023-05-09T02:11:43.467Z,12.23
2023-05-09T02:13:45.043Z,15.38
2023-05-09T02:15:47.131Z,14.32
2023-05-09T02:17:48.789Z,13.73
2023-05-09T02:19:51.685Z,13.82
2023-05-09T02:21:53.223Z,15.23
2023-05-09T02:23:54.746Z,15.88
2023-05-09T02:25:56.569Z,14.15
2023-05-09T02:27:58.901Z,14.00
2023-05-09T02:30:04.390Z,14.10
2023-05-09T02:32:08.764Z,15.13
2023-05-09T02:34:11.396Z,13.68
2023-05-09T02:36:14.785Z,15.98
2023-05-09T02:38:16.434Z,15.95
2023-05-09T02:40:19.020Z,15.50
2023-05-09T02:42:22.069Z,16.98
2023-05-09T02:44:23.529Z,16.50
2023-05-09T02:46:25.384Z,19.10
2023-05-09T02:48:26.986Z,16.95
2023-05-09T02:50:28.580Z,15.50
2023-05-09T02:52:31.454Z,11.50
2023-05-09T02:54:32.976Z,13.98
2023-05-09T02:56:34.438Z,13.00
2023-05-09T02:58:35.900Z,12.30
2023-05-09T03:00:37.356Z,14.07
2023-05-09T03:02:39.006Z,12.70
2023-05-09T03:04:40.617Z,12.30
2023-05-09T03:06:42.083Z,13.52
2023-05-09T03:08:44.920Z,12.57
2023-05-09T03:10:46.421Z,13.88
2023-05-09T03:12:47.919Z,14.18
2023-05-09T03:14:49.444Z,14.38
2023-05-09T03:16:50.928Z,14.43
2023-05-09T03:18:52.440Z,13.27
2023-05-09T03:20:53.917Z,15.07
2023-05-09T03:22:55.431Z,13.68
2023-05-09T03:24:58.310Z,14.18
2023-05-09T03:26:59.835Z,12.57
2023-05-09T03:29:01.402Z,12.40
2023-05-09T03:31:02.909Z,11.85
2023-05-09T03:33:04.452Z,10.93
2023-05-09T03:35:06.949Z,11.70
2023-05-09T03:37:08.551Z,10.80
2023-05-09T03:39:10.196Z,12.05
2023-05-09T03:41:16.278Z,11.32
2023-05-09T03:43:17.758Z,11.13
2023-05-09T03:45:19.421Z,9.35
2023-05-09T03:47:20.907Z,10.07
2023-05-09T03:49:22.393Z,9.25
2023-05-09T03:51:23.933Z,9.63
2023-05-09T03:53:25.512Z,10.88
2023-05-09T03:55:26.994Z,9.88
2023-05-09T03:57:29.848Z,10.38
2023-05-09T03:59:31.337Z,10.63
2023-05-09T04:01:33.088Z,10.20
2023-05-09T04:03:34.865Z,9.68
2023-05-09T04:05:36.614Z,9.13
2023-05-09T04:07:38.178Z,9.45
2023-05-09T04:09:39.686Z,8.07
2023-05-09T04:11:41.205Z,9.07
2023-05-09T04:13:44.039Z,8.73
2023-05-09T04:15:45.545Z,8.48
2023-05-09T04:17:47.078Z,7.72
2023-05-09T04:19:48.693Z,8.15
2023-05-09T04:21:50.216Z,8.80
2023-05-09T04:23:51.737Z,9.35
2023-05-09T04:25:53.213Z,8.48
2023-05-09T04:27:54.692Z,8.43
2023-05-09T04:29:57.544Z,8.93
2023-05-09T04:31:59.272Z,8.98
2023-05-09T04:34:00.924Z,7.80
2023-05-09T04:36:02.443Z,8.70
2023-05-09T04:38:03.957Z,8.45
2023-05-09T04:40:07.166Z,9.65
2023-05-09T04:42:08.617Z,8.65
2023-05-09T04:44:10.142Z,9.25
2023-05-09T04:46:13.014Z,8.27
2023-05-09T04:48:14.523Z,8.50
2023-05-09T04:50:16.024Z,8.30
2023-05-09T04:52:17.782Z,8.77
2023-05-09T04:54:19.284Z,8.48
2023-05-09T04:56:20.790Z,8.45
2023-05-09T04:58:22.269Z,8.13
2023-05-09T05:00:23.779Z,7.60
2023-05-09T05:02:26.730Z,7.30
2023-05-09T05:04:28.369Z,7.28
2023-05-09T05:06:29.905Z,7.50
2023-05-09T05:08:31.393Z,7.32
2023-05-09T05:10:32.881Z,7.30
2023-05-09T05:12:34.342Z,7.68
2023-05-09T05:14:35.849Z,7.53
2023-05-09T05:16:37.672Z,6.85
2023-05-09T05:18:40.558Z,7.85
2023-05-09T05:20:42.484Z,9.85
2023-05-09T05:22:44.004Z,7.22
2023-05-09T05:24:45.491Z,7.68
2023-05-09T05:26:47.000Z,7.10
2023-05-09T05:28:48.526Z,6.90
2023-05-09T05:30:50.013Z,8.68
2023-05-09T05:32:51.676Z,7.47
2023-05-09T05:34:54.559Z,7.57
2023-05-09T05:36:56.068Z,8.00
2023-05-09T05:38:57.621Z,8.27
2023-05-09T05:40:59.133Z,7.80
2023-05-09T05:43:00.612Z,8.55
2023-05-09T05:45:02.217Z,7.32
2023-05-09T05:47:03.732Z,8.80
2023-05-09T05:49:05.194Z,7.90
2023-05-09T05:51:08.073Z,7.18
2023-05-09T05:53:09.545Z,6.20
2023-05-09T05:55:11.050Z,6.72
2023-05-09T05:57:12.574Z,7.10
2023-05-09T05:59:14.087Z,6.60
2023-05-09T06:01:15.571Z,8.50
2023-05-09T06:03:17.188Z,7.15
2023-05-09T06:05:18.760Z,7.22
2023-05-09T06:07:21.676Z,7.25
2023-05-09T06:09:23.159Z,7.13
2023-05-09T06:11:24.759Z,7.00
2023-05-09T06:13:26.286Z,6.82
2023-05-09T06:15:27.861Z,7.88
2023-05-09T06:17:29.410Z,6.72
2023-05-09T06:19:30.926Z,7.47
2023-05-09T06:21:32.397Z,7.22
2023-05-09T06:23:35.325Z,6.57
2023-05-09T06:25:36.876Z,7.88
2023-05-09T06:27:38.762Z,6.55
2023-05-09T06:29:40.291Z,6.50
2023-05-09T06:31:41.883Z,7.40
2023-05-09T06:33:43.427Z,7.78
2023-05-09T06:35:44.914Z,6.95
2023-05-09T06:37:48.380Z,6.93
2023-05-09T06:39:51.939Z,7.18
2023-05-09T06:41:53.404Z,8.52
2023-05-09T06:43:54.942Z,7.47
2023-05-09T06:45:56.466Z,6.63
2023-05-09T06:47:57.972Z,6.75
2023-05-09T06:49:59.551Z,7.20
2023-05-09T06:52:01.070Z,6.70
2023-05-09T06:54:02.523Z,6.00
2023-05-09T06:56:05.674Z,5.60
2023-05-09T06:58:07.215Z,7.05
2023-05-09T07:00:09.938Z,6.40
2023-05-09T07:02:11.496Z,6.05
2023-05-09T07:04:12.977Z,6.30
2023-05-09T07:06:14.529Z,6.82
2023-05-09T07:08:16.018Z,6.35
2023-05-09T07:10:17.600Z,7.47
2023-05-09T07:12:20.439Z,7.70
2023-05-09T07:14:21.988Z,7.47
2023-05-09T07:16:23.580Z,7.38
2023-05-09T07:18:25.162Z,8.80
2023-05-09T07:20:26.742Z,8.43
2023-05-09T07:22:30.668Z,8.68
2023-05-09T07:24:33.088Z,7.40
2023-05-09T07:26:35.283Z,7.07
2023-05-09T07:28:38.204Z,6.97
2023-05-09T07:30:39.704Z,7.95
2023-05-09T07:32:41.309Z,7.53
2023-05-09T07:34:42.819Z,7.63
2023-05-09T07:36:44.306Z,8.07
2023-05-09T07:38:45.797Z,7.05
2023-05-09T07:40:47.317Z,7.72
2023-05-09T07:42:48.849Z,7.22
2023-05-09T07:44:51.756Z,6.60
2023-05-09T07:46:53.291Z,7.30
2023-05-09T07:48:54.796Z,7.32
2023-05-09T07:50:56.273Z,7.15
2023-05-09T07:52:57.776Z,6.43
2023-05-09T07:54:59.243Z,6.95
2023-05-09T07:57:00.781Z,7.60
2023-05-09T07:59:02.291Z,7.45
2023-05-09T08:01:05.214Z,7.38
2023-05-09T08:03:06.856Z,8.52
2023-05-09T08:05:09.291Z,6.55
2023-05-09T08:07:10.782Z,6.70
2023-05-09T08:09:12.272Z,5.85
2023-05-09T08:11:13.816Z,5.45
2023-05-09T08:13:15.333Z,7.00
2023-05-09T08:15:17.176Z,6.60
2023-05-09T08:17:20.332Z,6.95
2023-05-09T08:19:21.859Z,7.95
2023-05-09T08:21:23.390Z,6.68
2023-05-09T08:23:25.014Z,8.00
2023-05-09T08:25:26.501Z,6.43
2023-05-09T08:27:27.991Z,7.10
2023-05-09T08:29:29.485Z,6.63
2023-05-09T08:31:31.046Z,6.97
2023-05-09T08:33:34.038Z,6.32
2023-05-09T08:35:35.564Z,6.90
2023-05-09T08:37:37.183Z,5.75
2023-05-09T08:39:38.707Z,6.45
2023-05-09T08:41:40.411Z,5.68
2023-05-09T08:43:42.207Z,7.45
2023-05-09T08:45:46.779Z,5.63
2023-05-09T08:47:48.462Z,5.72
2023-05-09T08:49:52.497Z,6.75
2023-05-09T08:51:54.618Z,5.82
2023-05-09T08:53:56.423Z,5.78
2023-05-09T08:55:59.074Z,4.97
2023-05-09T08:58:00.638Z,5.53
2023-05-09T09:00:02.873Z,4.90
2023-05-09T09:02:06.430Z,5.50
2023-05-09T09:04:08.629Z,5.43
2023-05-09T09:06:11.746Z,6.40
2023-05-09T09:08:14.212Z,5.25
2023-05-09T09:10:16.796Z,5.38
2023-05-09T09:12:21.770Z,4.93
2023-05-09T09:14:24.797Z,5.32
2023-05-09T09:16:28.635Z,5.28
2023-05-09T09:18:33.296Z,5.30
2023-05-09T09:20:37.244Z,4.93
2023-05-09T09:22:43.103Z,4.63
2023-05-09T09:24:44.811Z,5.45
2023-05-09T09:26:47.728Z,5.47
2023-05-09T09:28:49.226Z,4.78
2023-05-09T09:30:50.724Z,5.38
2023-05-09T09:32:52.265Z,6.20
2023-05-09T09:35:04.207Z,5.93
2023-05-09T09:37:06.486Z,5.88
2023-05-09T09:39:09.328Z,5.80
2023-05-09T09:41:13.045Z,4.95
2023-05-09T09:43:14.528Z,5.43
2023-05-09T09:45:17.359Z,6.00
2023-05-09T09:47:18.840Z,5.88
2023-05-09T09:49:21.804Z,5.60
2023-05-09T09:51:27.012Z,5.68
2023-05-09T09:53:28.568Z,5.35
2023-05-09T09:55:31.714Z,5.68
2023-05-09T09:57:36.817Z,6.28
2023-05-09T09:59:38.306Z,5.82
2023-05-09T10:01:57.938Z,6.10
2023-05-09T10:04:03.244Z,6.50
2023-05-09T10:06:05.420Z,5.20
2023-05-09T10:08:06.937Z,5.53
2023-05-09T10:10:09.600Z,5.85
2023-05-09T10:12:12.734Z,6.18
2023-05-09T10:14:14.313Z,5.60
2023-05-09T10:16:16.082Z,6.38
2023-05-09T10:18:21.749Z,7.97
2023-05-09T10:20:24.067Z,8.05
2023-05-09T10:22:26.109Z,6.95
2023-05-09T10:24:29.981Z,6.03
2023-05-09T10:26:35.327Z,7.07
2023-05-09T10:28:41.926Z,6.82
2023-05-09T10:30:56.714Z,6.53
2023-05-09T10:33:03.285Z,5.72
2023-05-09T10:35:07.971Z,6.18
2023-05-09T10:37:09.635Z,5.13
2023-05-09T10:39:11.222Z,4.72
2023-05-09T10:41:14.414Z,5.30
2023-05-09T10:43:16.275Z,6.18
2023-05-09T10:45:20.562Z,5.10
2023-05-09T10:47:22.770Z,5.95
2023-05-09T10:49:24.458Z,4.50
2023-05-09T10:51:26.141Z,4.35
2023-05-09T10:53:40.832Z,5.88
2023-05-09T10:55:50.377Z,4.18
2023-05-09T10:57:53.906Z,3.60
2023-05-09T11:01:58.876Z,3.38
2023-05-09T11:04:01.855Z,3.78
2023-05-09T11:06:03.535Z,3.63
2023-05-09T11:08:22.224Z,3.65
2023-05-09T11:10:23.728Z,3.70
2023-05-09T11:12:25.353Z,3.35
2023-05-09T11:14:31.934Z,3.42
2023-05-09T11:17:01.906Z,3.20
2023-05-09T11:19:03.450Z,3.35
2023-05-09T11:21:08.558Z,3.83
2023-05-09T11:23:10.468Z,3.70
2023-05-09T11:25:14.107Z,3.85
2023-05-09T11:27:18.987Z,3.90
2023-05-09T11:29:20.495Z,3.63
2023-05-09T11:31:22.068Z,3.55
2023-05-09T11:33:27.943Z,3.65
2023-05-09T11:35:29.437Z,3.38
2023-05-09T11:37:31.319Z,3.40
2023-05-09T11:39:32.840Z,3.35
2023-05-09T11:41:40.017Z,3.95
2023-05-09T11:43:43.363Z,3.50
2023-05-09T11:45:46.269Z,3.58
2023-05-09T11:47:49.024Z,3.58
2023-05-09T11:49:51.911Z,2.72
2023-05-09T11:51:53.404Z,2.90
2023-05-09T11:53:55.195Z,3.75
2023-05-09T11:55:56.751Z,3.97
2023-05-09T11:57:59.095Z,4.00
2023-05-09T12:00:00.912Z,3.75
2023-05-09T12:02:03.977Z,4.10
2023-05-09T12:04:06.626Z,4.18
2023-05-09T12:06:13.747Z,4.38
2023-05-09T12:08:16.388Z,3.92
2023-05-09T12:10:20.623Z,4.07
2023-05-09T12:12:22.160Z,3.72
2023-05-09T12:14:27.849Z,5.15
2023-05-09T12:16:29.430Z,4.47
2023-05-09T12:18:31.128Z,4.32
2023-05-09T12:20:43.395Z,4.47
2023-05-09T12:22:53.097Z,3.63
2023-05-09T12:24:54.591Z,4.28
2023-05-09T12:26:57.255Z,4.60
2023-05-09T12:28:59.043Z,4.25
2023-05-09T12:31:01.225Z,3.10
2023-05-09T12:33:03.228Z,4.10
2023-05-09T12:35:06.489Z,4.22
2023-05-09T12:37:14.492Z,4.88
2023-05-09T12:39:18.178Z,3.53
2023-05-09T12:41:35.039Z,4.18
2023-05-09T12:43:39.280Z,4.40
2023-05-09T12:45:40.832Z,3.28
2023-05-09T12:47:42.448Z,3.53
2023-05-09T12:49:48.847Z,3.63
2023-05-09T12:51:51.539Z,3.65
2023-05-09T12:53:53.126Z,3.17
2023-05-09T12:56:00.692Z,3.15
2023-05-09T12:58:03.144Z,3.55
2023-05-09T13:00:06.938Z,3.97
2023-05-09T13:02:08.495Z,3.40
2023-05-09T13:04:11.936Z,3.47
2023-05-09T13:06:14.590Z,3.90
2023-05-09T13:08:16.105Z,4.07
2023-05-09T13:10:19.475Z,3.22
2023-05-09T13:12:22.575Z,3.28
2023-05-09T13:14:24.124Z,3.08
2023-05-09T13:16:25.656Z,3.03
2023-05-09T13:18:27.167Z,3.10
2023-05-09T13:20:28.652Z,2.80
2023-05-09T13:22:30.171Z,3.00
2023-05-09T13:24:31.650Z,2.90
2023-05-09T13:26:33.193Z,2.90
2023-05-09T13:28:36.036Z,3.33
2023-05-09T13:30:37.576Z,3.42
2023-05-09T13:32:39.227Z,4.20
2023-05-09T13:34:41.118Z,3.05
2023-05-09T13:36:42.620Z,2.97
2023-05-09T13:38:45.288Z,2.97
2023-05-09T13:40:46.776Z,3.47
2023-05-09T13:42:48.265Z,3.28
2023-05-09T13:44:51.080Z,3.88
2023-05-09T13:46:52.687Z,3.08
2023-05-09T13:48:54.200Z,3.28
2023-05-09T13:50:55.676Z,2.75
2023-05-09T13:52:57.143Z,3.10
2023-05-09T13:54:58.703Z,3.00
2023-05-09T13:57:00.730Z,3.03
2023-05-09T13:59:02.221Z,2.95
2023-05-09T14:01:05.176Z,2.78
2023-05-09T14:03:06.752Z,3.33
2023-05-09T14:05:09.004Z,2.63
2023-05-09T14:07:10.543Z,2.80
2023-05-09T14:09:12.045Z,2.97
2023-05-09T14:11:13.589Z,2.70
2023-05-09T14:13:15.112Z,3.00
2023-05-09T14:15:16.590Z,2.67
2023-05-09T14:17:19.418Z,2.65
2023-05-09T14:19:20.918Z,3.17
2023-05-09T14:21:22.460Z,3.25
2023-05-09T14:23:24.020Z,2.88
2023-05-09T14:25:25.546Z,3.00
2023-05-09T14:27:27.021Z,2.70
2023-05-09T14:29:28.535Z,3.13
2023-05-09T14:31:30.118Z,3.88
2023-05-09T14:33:33.071Z,3.05
2023-05-09T14:35:34.641Z,2.90
2023-05-09T14:37:36.580Z,4.50
2023-05-09T14:39:38.071Z,3.40
2023-05-09T14:41:39.551Z,2.78
2023-05-09T14:43:41.490Z,3.05
2023-05-09T14:45:42.981Z,3.20
2023-05-09T14:47:44.473Z,2.65
2023-05-09T14:49:47.335Z,3.00
2023-05-09T14:51:48.792Z,2.38
2023-05-09T14:53:50.263Z,3.15
2023-05-09T14:55:51.801Z,3.20
2023-05-09T14:57:53.463Z,2.95
2023-05-09T14:59:58.779Z,3.00
2023-05-09T15:02:00.601Z,2.65
2023-05-09T15:04:02.089Z,3.00
2023-05-09T15:06:05.167Z,3.03
2023-05-09T15:08:06.897Z,2.55
2023-05-09T15:10:09.141Z,2.70
2023-05-09T15:12:10.613Z,2.72
2023-05-09T15:14:12.334Z,2.63
2023-05-09T15:16:13.925Z,2.70
2023-05-09T15:18:15.468Z,2.97
2023-05-09T15:20:17.914Z,2.35
2023-05-09T15:22:21.089Z,3.08
2023-05-09T15:24:22.583Z,2.90
2023-05-09T15:26:24.130Z,2.80
2023-05-09T15:28:25.621Z,2.78
2023-05-09T15:30:27.173Z,2.90
2023-05-09T15:32:28.870Z,3.33
2023-05-09T15:34:30.415Z,3.40
2023-05-09T15:36:31.915Z,3.10
2023-05-09T15:38:34.814Z,2.72
2023-05-09T15:40:36.302Z,2.70
2023-05-09T15:42:38.552Z,2.50
2023-05-09T15:44:40.449Z,2.78
2023-05-09T15:46:41.982Z,3.22
2023-05-09T15:48:43.576Z,2.83
2023-05-09T15:50:45.245Z,2.78
2023-05-09T15:52:46.824Z,3.00
2023-05-09T15:54:50.376Z,3.00
2023-05-09T15:56:51.915Z,2.70
2023-05-09T15:58:53.452Z,2.83
2023-05-09T16:00:55.040Z,3.25
2023-05-09T16:02:56.851Z,2.70
2023-05-09T16:04:58.404Z,3.20
2023-05-09T16:06:59.926Z,2.55
2023-05-09T16:09:01.478Z,2.70
2023-05-09T16:11:04.612Z,2.85
2023-05-09T16:13:06.858Z,3.38
2023-05-09T16:15:08.914Z,2.85
2023-05-09T16:17:10.439Z,2.78
2023-05-09T16:19:11.928Z,2.60
2023-05-09T16:21:13.519Z,2.70
2023-05-09T16:23:15.036Z,2.63
2023-05-09T16:25:16.961Z,3.45
2023-05-09T16:27:19.933Z,2.92
2023-05-09T16:29:21.412Z,3.03
2023-05-09T16:31:23.376Z,2.60
2023-05-09T16:33:24.915Z,2.75
2023-05-09T16:35:26.393Z,2.83
2023-05-09T16:37:27.978Z,2.70
2023-05-09T16:39:29.613Z,2.92
2023-05-09T16:41:31.109Z,3.25
2023-05-09T16:43:34.051Z,3.15
2023-05-09T16:45:35.783Z,2.97
2023-05-09T16:47:37.305Z,3.05
2023-05-09T16:49:38.822Z,2.55
2023-05-09T16:51:40.394Z,2.63
2023-05-09T16:53:41.892Z,2.65
2023-05-09T16:55:43.364Z,2.72
2023-05-09T16:57:44.866Z,2.53
2023-05-09T16:59:47.762Z,2.20
2023-05-09T17:01:49.234Z,2.60
2023-05-09T17:03:50.921Z,2.28
2023-05-09T17:05:52.733Z,2.20
2023-05-09T17:07:54.276Z,2.35
2023-05-09T17:09:55.778Z,3.05
2023-05-09T17:11:57.296Z,2.67
2023-05-09T17:13:58.822Z,2.70
2023-05-09T17:16:01.717Z,3.13
2023-05-09T17:18:03.387Z,3.05
2023-05-09T17:20:06.145Z,2.70
2023-05-09T17:22:07.605Z,2.85
2023-05-09T17:24:09.317Z,2.70
2023-05-09T17:26:10.885Z,2.88
2023-05-09T17:28:12.533Z,3.17
2023-05-09T17:30:14.477Z,3.10
2023-05-09T17:32:17.598Z,3.78
2023-05-09T17:34:19.099Z,2.97
2023-05-09T17:36:20.600Z,3.10
2023-05-09T17:38:22.107Z,3.35
2023-05-09T17:40:23.842Z,3.60
2023-05-09T17:42:25.423Z,3.15
2023-05-09T17:44:26.910Z,3.22
2023-05-09T17:46:28.505Z,2.97
2023-05-09T17:48:31.389Z,3.20
2023-05-09T17:50:32.925Z,3.13
2023-05-09T17:52:34.428Z,3.50
2023-05-09T17:54:36.427Z,3.65
2023-05-09T17:56:37.948Z,2.90
2023-05-09T17:58:39.433Z,3.97
2023-05-09T18:00:41.112Z,3.10
2023-05-09T18:02:42.860Z,3.65
2023-05-09T18:04:45.832Z,4.03
2023-05-09T18:06:49.132Z,3.80
2023-05-09T18:08:50.794Z,2.58
2023-05-09T18:10:52.434Z,3.22
2023-05-09T18:12:53.968Z,3.53
2023-05-09T18:14:55.471Z,3.28
2023-05-09T18:16:57.076Z,3.47
2023-05-09T18:18:58.610Z,3.97
2023-05-09T18:21:01.452Z,3.00
2023-05-09T18:23:03.149Z,3.40
2023-05-09T18:25:05.483Z,3.45
2023-05-09T18:27:07.088Z,3.20
2023-05-09T18:29:08.541Z,2.50
2023-05-09T18:31:10.088Z,3.58
2023-05-09T18:33:11.792Z,4.88
2023-05-09T18:35:13.430Z,2.75
2023-05-09T18:37:16.442Z,4.00
2023-05-09T18:39:18.069Z,3.17
2023-05-09T18:41:19.553Z,2.42
2023-05-09T18:43:21.007Z,2.80
2023-05-09T18:45:22.697Z,2.88
2023-05-09T18:47:24.370Z,2.55
2023-05-09T18:49:26.398Z,2.38
2023-05-09T18:51:27.899Z,3.72
2023-05-09T18:53:30.836Z,2.65
2023-05-09T18:55:32.552Z,2.25
2023-05-09T18:57:37.568Z,3.40
2023-05-09T18:59:39.200Z,3.10
2023-05-09T19:01:40.673Z,3.08
2023-05-09T19:03:42.743Z,2.65
2023-05-09T19:05:44.325Z,2.78
2023-05-09T19:07:45.828Z,2.90
2023-05-09T19:09:48.849Z,3.00
2023-05-09T19:11:50.585Z,2.88
2023-05-09T19:13:52.082Z,2.90
2023-05-09T19:15:53.648Z,2.88
2023-05-09T19:17:55.208Z,3.28
2023-05-09T19:19:56.764Z,2.70
2023-05-09T19:21:58.256Z,2.78
2023-05-09T19:23:59.756Z,3.03
2023-05-09T19:26:02.659Z,2.72
2023-05-09T19:28:04.343Z,2.95
2023-05-09T19:30:07.169Z,3.22
2023-05-09T19:32:08.648Z,2.75
2023-05-09T19:34:10.357Z,2.47
2023-05-09T19:36:11.934Z,2.83
2023-05-09T19:38:13.564Z,3.53
2023-05-09T19:40:15.392Z,3.60
2023-05-09T19:42:18.482Z,4.30
2023-05-09T19:44:19.995Z,3.10
2023-05-09T19:46:21.596Z,3.88
2023-05-09T19:48:23.213Z,2.60
2023-05-09T19:50:24.751Z,3.08
2023-05-09T19:52:26.244Z,2.63
2023-05-09T19:54:27.709Z,2.78
2023-05-09T19:56:29.330Z,3.00
2023-05-09T19:58:32.151Z,2.65
2023-05-09T20:00:33.789Z,3.05
2023-05-09T20:02:35.386Z,3.00
2023-05-09T20:04:37.181Z,2.80
2023-05-09T20:06:38.741Z,2.50
2023-05-09T20:08:40.228Z,2.38
2023-05-09T20:10:41.720Z,2.10
2023-05-09T20:12:43.398Z,2.17
2023-05-09T20:14:46.302Z,2.10
2023-05-09T20:16:47.934Z,2.60
2023-05-09T20:18:51.975Z,2.40
2023-05-09T20:20:53.811Z,1.77
2023-05-09T20:22:55.317Z,2.40
2023-05-09T20:24:56.916Z,2.30
2023-05-09T20:26:58.439Z,2.65
2023-05-09T20:28:59.954Z,2.83
2023-05-09T20:31:02.811Z,2.28
2023-05-09T20:33:04.442Z,4.82
2023-05-09T20:35:06.456Z,2.35
2023-05-09T20:37:07.959Z,2.30
2023-05-09T20:39:11.107Z,2.92
2023-05-09T20:41:13.234Z,2.78
2023-05-09T20:43:14.758Z,2.30
2023-05-09T20:45:16.209Z,2.17
2023-05-09T20:47:19.041Z,2.97
2023-05-09T20:49:20.546Z,2.80
2023-05-09T20:51:22.031Z,2.67
2023-05-09T20:53:23.576Z,2.58
2023-05-09T20:55:25.091Z,2.20
2023-05-09T20:57:26.579Z,2.20
2023-05-09T20:59:28.088Z,2.85
2023-05-09T21:01:30.154Z,2.47
2023-05-09T21:03:33.054Z,2.45
2023-05-09T21:05:34.571Z,1.90
2023-05-09T21:07:36.110Z,2.78
2023-05-09T21:09:37.654Z,3.30
2023-05-09T21:11:39.177Z,2.50
2023-05-09T21:13:40.667Z,2.53
2023-05-09T21:15:42.215Z,2.38
2023-05-09T21:17:43.693Z,2.20
2023-05-09T21:19:46.515Z,2.50
2023-05-09T21:21:48.078Z,2.65
2023-05-09T21:23:49.611Z,2.38
2023-05-09T21:25:51.073Z,2.35
2023-05-09T21:27:52.596Z,1.92
2023-05-09T21:29:54.071Z,2.58
2023-05-09T21:31:55.546Z,2.55
2023-05-09T21:33:57.919Z,2.45
2023-05-09T21:36:00.770Z,2.33
2023-05-09T21:38:02.311Z,2.28
2023-05-09T21:40:05.782Z,2.47
2023-05-09T21:44:08.801Z,2.25
2023-05-09T21:46:10.527Z,2.40
2023-05-09T21:48:12.415Z,3.38
2023-05-09T21:50:14.362Z,2.60
2023-05-09T21:52:17.527Z,2.50
2023-05-09T21:54:19.086Z,2.20
2023-05-09T21:56:20.609Z,2.33
2023-05-09T21:58:22.117Z,2.25
2023-05-09T22:00:23.669Z,2.20
2023-05-09T22:02:25.263Z,2.25
2023-05-09T22:04:26.827Z,2.20
2023-05-09T22:06:28.500Z,1.75
2023-05-09T22:08:31.397Z,2.17
2023-05-09T22:10:32.942Z,1.90
2023-05-09T22:12:34.546Z,2.13
2023-05-09T22:14:45.175Z,1.83
2023-05-09T22:16:54.427Z,2.30
2023-05-09T22:18:56.041Z,2.00
2023-05-09T22:20:57.522Z,2.30
2023-05-09T22:22:59.025Z,1.95
2023-05-09T22:25:03.500Z,1.85
2023-05-09T22:27:04.987Z,2.10
2023-05-09T22:29:06.479Z,1.80
2023-05-09T22:31:08.061Z,1.85
2023-05-09T22:33:09.600Z,1.80
2023-05-09T22:35:11.242Z,2.08
2023-05-09T22:37:12.750Z,1.90
2023-05-09T22:39:14.230Z,1.70
2023-05-09T22:41:17.121Z,1.83
2023-05-09T22:43:18.609Z,1.83
2023-05-09T22:45:20.264Z,1.77
2023-05-09T22:47:21.772Z,2.03
2023-05-09T22:49:23.292Z,1.70
2023-05-09T22:51:24.922Z,1.90
2023-05-09T22:53:26.509Z,1.80
2023-05-09T22:55:27.996Z,1.70
2023-05-09T22:57:31.067Z,1.85
2023-05-09T22:59:32.558Z,1.85
2023-05-09T23:01:34.105Z,1.90
2023-05-09T23:03:35.961Z,1.50
2023-05-09T23:05:37.486Z,1.77
2023-05-09T23:07:39.017Z,1.60
2023-05-09T23:09:40.522Z,1.80
2023-05-09T23:11:42.009Z,2.10
2023-05-09T23:13:44.848Z,1.77
2023-05-09T23:15:46.715Z,1.60
2023-05-09T23:17:48.281Z,1.83
2023-05-09T23:19:49.819Z,1.80
2023-05-09T23:21:51.303Z,2.10
2023-05-09T23:23:52.768Z,1.83
2023-05-09T23:25:54.252Z,2.15
2023-05-09T23:27:55.704Z,2.17
2023-05-09T23:29:58.567Z,1.80
2023-05-09T23:32:00.057Z,1.80
2023-05-09T23:34:01.621Z,2.75
2023-05-09T23:36:03.823Z,1.90
2023-05-09T23:38:05.316Z,1.52
2023-05-09T23:40:07.965Z,1.98
2023-05-09T23:42:09.436Z,1.88
2023-05-09T23:44:11.216Z,2.35
2023-05-09T23:46:14.253Z,2.00
2023-05-09T23:48:15.880Z,2.20
2023-05-09T23:50:17.700Z,1.80
2023-05-09T23:52:19.422Z,2.22
2023-05-09T23:54:20.910Z,2.30
2023-05-09T23:56:22.463Z,2.50
2023-05-09T23:58:23.944Z,2.30
